Time;durP1;ratioP1;P1;durP2;ratioP2;P2;SDS_P1;SDS_P2;PMS_P1;PMS_P2;Temp;Humidity;BMP_temperature;BMP_pressure;BME280_temperature;BME280_humidity;BME280_pressure;Samples;Min_cycle;Max_cycle;Signal;HPM_P1;HPM_P2
2022/03/17 00:01:42;;;;;;;27.75;16.08;;;9.80;99.90;;;;;;5156681;27;20057;-74
2022/03/17 00:04:08;;;;;;;27.17;16.52;;;9.70;99.90;;;;;;5156927;27;20042;-74
2022/03/17 00:06:34;;;;;;;28.48;16.58;;;9.70;99.90;;;;;;5156623;27;20122;-74
2022/03/17 00:09:01;;;;;;;26.80;16.23;;;9.70;99.90;;;;;;5156508;27;20129;-74
2022/03/17 00:11:28;;;;;;;25.48;16.17;;;9.70;99.90;;;;;;5138005;27;20091;-74
2022/03/17 00:13:54;;;;;;;26.95;15.82;;;9.70;99.90;;;;;;5156847;27;20038;-74
2022/03/17 00:16:19;;;;;;;27.27;17.10;;;9.60;99.90;;;;;;5156402;27;20043;-74
2022/03/17 00:18:45;;;;;;;27.00;15.98;;;9.60;99.90;;;;;;5138609;27;20486;-74
2022/03/17 00:21:10;;;;;;;27.70;16.45;;;9.60;99.90;;;;;;5156370;27;20458;-74
2022/03/17 00:23:36;;;;;;;29.15;16.42;;;9.60;99.90;;;;;;5156294;27;20035;-74
2022/03/17 00:26:01;;;;;;;28.08;16.23;;;9.60;99.90;;;;;;5156203;27;20475;-74
2022/03/17 00:28:27;;;;;;;29.40;16.50;;;9.60;99.90;;;;;;5156126;27;20421;-74
2022/03/17 00:30:52;;;;;;;27.08;16.27;;;9.60;99.90;;;;;;5156048;27;20110;-74
2022/03/17 00:33:18;;;;;;;25.27;15.57;;;9.60;99.90;;;;;;5156270;27;20395;-75
2022/03/17 00:35:44;;;;;;;27.90;16.23;;;9.60;99.90;;;;;;5137553;27;20061;-74
2022/03/17 00:38:15;;;;;;;25.65;15.88;;;9.60;99.90;;;;;;5155462;27;20054;-74
2022/03/17 00:40:42;;;;;;;29.45;16.33;;;9.50;99.90;;;;;;5155869;27;20537;-75
2022/03/17 00:43:11;;;;;;;27.77;17.38;;;9.50;99.90;;;;;;5155866;27;20043;-75
2022/03/17 00:45:37;;;;;;;29.15;15.93;;;9.50;99.90;;;;;;5155689;27;20038;-75
2022/03/17 00:48:03;;;;;;;27.58;16.58;;;9.50;99.90;;;;;;5155914;27;20051;-74
2022/03/17 00:50:29;;;;;;;28.08;16.70;;;9.50;99.90;;;;;;5155652;27;20136;-74
2022/03/17 00:52:55;;;;;;;28.25;16.33;;;9.50;99.90;;;;;;5137166;27;20137;-74
2022/03/17 00:55:21;;;;;;;27.63;16.52;;;9.60;99.90;;;;;;5155725;27;20043;-75
2022/03/17 00:57:47;;;;;;;28.38;16.95;;;9.60;99.90;;;;;;5137073;27;20486;-75
2022/03/17 01:00:18;;;;;;;28.70;16.55;;;9.60;99.90;;;;;;5155684;27;20045;-74
2022/03/17 01:02:46;;;;;;;29.92;15.90;;;9.60;99.90;;;;;;5155620;27;20034;-75
2022/03/17 01:05:13;;;;;;;27.70;16.35;;;9.70;99.90;;;;;;5137599;27;20047;-75
2022/03/17 01:07:39;;;;;;;25.58;16.05;;;9.60;99.90;;;;;;5137021;27;20050;-75
2022/03/17 01:10:06;;;;;;;28.05;16.05;;;9.70;99.90;;;;;;5155214;27;20049;-74
2022/03/17 01:12:32;;;;;;;;;;;9.70;99.90;;;;;;5155807;27;20045;-74
2022/03/17 01:14:57;;;;;;;24.67;14.93;;;9.80;99.90;;;;;;5155512;27;20274;-74
2022/03/17 01:17:23;;;;;;;25.75;15.30;;;9.70;99.90;;;;;;5155368;27;20045;-74
2022/03/17 01:19:49;;;;;;;25.38;14.55;;;9.80;99.90;;;;;;5155652;27;20475;-75
2022/03/17 01:22:14;;;;;;;28.35;16.13;;;9.80;99.90;;;;;;5155380;27;20443;-74
2022/03/17 01:24:40;;;;;;;27.25;14.63;;;9.80;99.90;;;;;;5156256;27;20433;-74
2022/03/17 01:27:06;;;;;;;29.23;16.23;;;9.80;99.90;;;;;;5141212;27;20039;-74
2022/03/17 01:29:31;;;;;;;27.73;16.38;;;9.80;99.90;;;;;;5156661;27;20041;-74
2022/03/17 01:31:57;;;;;;;29.30;15.57;;;9.80;99.90;;;;;;5137209;27;20158;-75
2022/03/17 01:34:22;;;;;;;27.13;15.50;;;9.80;99.90;;;;;;5155255;27;20504;-75
2022/03/17 01:36:48;;;;;;;24.42;15.05;;;9.90;99.90;;;;;;5155308;27;20534;-74
2022/03/17 01:39:13;;;;;;;30.20;15.23;;;9.80;99.90;;;;;;5119886;27;20050;-75
2022/03/17 01:41:39;;;;;;;29.27;15.77;;;9.90;99.90;;;;;;5137278;27;20074;-75
2022/03/17 01:44:05;;;;;;;28.58;15.75;;;9.90;99.90;;;;;;5154983;27;20073;-75
2022/03/17 01:47:26;;;;;;;26.43;16.20;;;9.80;99.90;;;;;;5155475;27;20431;-75
2022/03/17 01:49:17;;;;;;;25.90;15.73;;;9.80;99.90;;;;;;5125866;27;20470;-75
2022/03/17 01:51:45;;;;;;;26.17;16.35;;;9.90;99.90;;;;;;5159453;27;20042;-75
2022/03/17 01:54:11;;;;;;;25.30;16.33;;;9.80;99.90;;;;;;5158911;27;20474;-75
2022/03/17 01:56:37;;;;;;;28.00;15.43;;;9.80;99.90;;;;;;5140926;27;20050;-75
2022/03/17 01:59:03;;;;;;;26.63;16.10;;;9.80;99.90;;;;;;5159067;27;20038;-75
2022/03/17 02:01:28;;;;;;;24.83;14.68;;;9.80;99.90;;;;;;5159293;27;20117;-74
2022/03/17 02:03:56;;;;;;;27.33;16.15;;;9.80;99.90;;;;;;5140822;27;20045;-75
2022/03/17 02:06:23;;;;;;;28.45;16.90;;;9.80;99.90;;;;;;5158891;27;20542;-75
2022/03/17 02:08:49;;;;;;;26.52;16.05;;;9.80;99.90;;;;;;5158825;27;20474;-75
2022/03/17 02:13:58;;;;;;;24.35;15.80;;;9.80;99.90;;;;;;5159213;27;20398;-74
2022/03/17 02:16:27;;;;;;;30.55;16.92;;;9.80;99.90;;;;;;5158834;27;20130;-74
2022/03/17 02:18:52;;;;;;;25.25;15.60;;;9.80;99.90;;;;;;5158589;27;20474;-74
2022/03/17 02:21:18;;;;;;;28.65;15.95;;;9.70;99.90;;;;;;5158710;27;20042;-74
2022/03/17 02:26:30;;;;;;;27.80;16.38;;;9.70;99.90;;;;;;5158511;27;20046;-75
2022/03/17 02:28:56;;;;;;;24.80;16.38;;;9.70;99.90;;;;;;5158478;27;20379;-75
2022/03/17 02:31:21;;;;;;;26.08;15.82;;;9.70;99.90;;;;;;5158431;27;20064;-75
2022/03/17 02:33:47;;;;;;;27.17;17.15;;;9.70;99.90;;;;;;5139902;27;20047;-75
2022/03/17 02:36:12;;;;;;;27.45;16.80;;;9.60;99.90;;;;;;5158353;27;20042;-75
2022/03/17 02:38:38;;;;;;;27.92;15.85;;;9.60;99.90;;;;;;5158304;27;20035;-75
2022/03/17 02:41:03;;;;;;;26.42;15.88;;;9.60;99.90;;;;;;5140203;27;20046;-73
2022/03/17 02:43:29;;;;;;;28.85;16.67;;;9.60;99.90;;;;;;5139907;27;20474;-73
2022/03/17 02:45:55;;;;;;;25.08;16.05;;;9.60;99.90;;;;;;5158090;27;20547;-74
2022/03/17 02:48:20;;;;;;;29.10;17.02;;;9.60;99.90;;;;;;5158075;27;20099;-74
2022/03/17 02:50:46;;;;;;;26.23;16.15;;;9.60;99.90;;;;;;5139796;27;20493;-74
2022/03/17 02:53:13;;;;;;;25.17;15.23;;;9.70;99.90;;;;;;5158104;27;20465;-74
2022/03/17 02:55:41;;;;;;;28.25;16.60;;;9.60;99.90;;;;;;5157966;27;20046;-74
2022/03/17 02:58:08;;;;;;;28.25;17.08;;;9.70;99.90;;;;;;5139762;27;20049;-74
2022/03/17 03:00:34;;;;;;;;;;;9.70;99.90;;;;;;5157769;27;20105;-74
2022/03/17 03:03:00;;;;;;;25.83;16.83;;;9.70;99.90;;;;;;5157758;27;19963;-74
2022/03/17 03:05:26;;;;;;;28.90;17.48;;;9.70;99.90;;;;;;5157786;27;20398;-74
2022/03/17 03:07:53;;;;;;;25.20;16.25;;;9.70;99.90;;;;;;5157760;27;20043;-74
2022/03/17 03:10:19;;;;;;;;;;;9.70;99.90;;;;;;5158315;27;20062;-74
2022/03/17 03:12:45;;;;;;;25.75;15.60;;;9.70;99.90;;;;;;5122138;27;19923;-74
2022/03/17 03:15:11;;;;;;;28.10;16.35;;;9.60;99.90;;;;;;5139229;27;20042;-74
2022/03/17 03:17:36;;;;;;;29.17;16.77;;;9.60;99.90;;;;;;5139075;27;20035;-74
2022/03/17 03:20:02;;;;;;;29.75;16.33;;;9.60;99.90;;;;;;5157907;27;20042;-74
2022/03/17 03:22:29;;;;;;;25.75;16.70;;;9.60;99.90;;;;;;5157489;27;20042;-74
2022/03/17 03:24:57;;;;;;;26.60;16.20;;;9.60;99.90;;;;;;5157492;27;20046;-74
2022/03/17 03:27:27;;;;;;;29.58;18.10;;;9.50;99.90;;;;;;5157375;27;20043;-74
2022/03/17 03:29:54;;;;;;;26.58;16.55;;;9.50;99.90;;;;;;5122020;27;20047;-74
2022/03/17 03:32:19;;;;;;;;;;;9.50;99.90;;;;;;5139145;27;20046;-73
2022/03/17 03:34:45;;;;;;;26.35;16.85;;;9.50;99.90;;;;;;5138955;27;19919;-74
2022/03/17 03:37:23;;;;;;;26.30;16.40;;;9.50;99.90;;;;;;5157239;27;20046;-74
2022/03/17 03:39:49;;;;;;;;;;;9.50;99.90;;;;;;5157660;27;20041;-74
2022/03/17 03:42:15;;;;;;;30.58;18.05;;;9.50;99.90;;;;;;5157224;27;19977;-74
2022/03/17 03:44:40;;;;;;;30.75;17.35;;;9.50;99.90;;;;;;5138506;27;20082;-74
2022/03/17 03:47:06;;;;;;;28.88;16.88;;;9.50;99.90;;;;;;5156986;27;20042;-74
2022/03/17 03:49:33;;;;;;;31.00;17.73;;;9.50;99.90;;;;;;5139346;27;20099;-74
2022/03/17 03:51:58;;;;;;;28.33;17.30;;;9.50;99.90;;;;;;5157173;27;20042;-74
2022/03/17 03:54:24;;;;;;;28.48;17.27;;;9.50;99.90;;;;;;5156862;27;20041;-74
2022/03/17 03:56:55;;;;;;;29.77;17.85;;;9.60;99.90;;;;;;5156773;27;20497;-74
2022/03/17 03:59:25;;;;;;;29.02;18.25;;;9.50;99.90;;;;;;5156760;27;20038;-74
2022/03/17 04:01:57;;;;;;;28.35;18.38;;;9.50;99.90;;;;;;5138727;27;20425;-74
2022/03/17 04:04:23;;;;;;;26.95;17.50;;;9.60;99.90;;;;;;5156982;27;20492;-74
2022/03/17 04:07:01;;;;;;;27.70;17.58;;;9.60;99.90;;;;;;5156592;27;20043;-74
2022/03/17 04:09:29;;;;;;;25.08;16.67;;;9.60;99.90;;;;;;5138454;27;20050;-74
2022/03/17 04:11:56;;;;;;;28.50;18.15;;;9.60;99.90;;;;;;5136753;27;20506;-74
2022/03/17 04:14:23;;;;;;;26.35;16.88;;;9.60;99.90;;;;;;5156404;27;20051;-74
2022/03/17 04:16:49;;;;;;;28.52;18.63;;;9.60;99.90;;;;;;5156424;27;20050;-74
2022/03/17 04:19:18;;;;;;;29.75;18.83;;;9.60;99.90;;;;;;5156391;27;20043;-74
2022/03/17 04:21:45;;;;;;;27.63;17.98;;;9.60;99.90;;;;;;5156338;27;20091;-74
2022/03/17 04:24:11;;;;;;;30.40;18.40;;;9.60;99.90;;;;;;5156214;27;20042;-74
2022/03/17 04:26:36;;;;;;;31.42;17.63;;;9.60;99.90;;;;;;5137631;27;20118;-74
2022/03/17 04:29:02;;;;;;;29.35;18.52;;;9.60;99.90;;;;;;5156199;27;20471;-74
2022/03/17 04:31:29;;;;;;;29.45;18.33;;;9.60;99.90;;;;;;5138057;27;20051;-75
2022/03/17 04:33:55;;;;;;;28.08;17.80;;;9.70;99.90;;;;;;5137724;27;20115;-74
2022/03/17 04:36:21;;;;;;;27.00;18.00;;;9.70;99.90;;;;;;5156120;27;20529;-74
2022/03/17 04:38:47;;;;;;;28.52;18.77;;;9.70;99.90;;;;;;5137582;27;20086;-74
2022/03/17 04:41:13;;;;;;;27.60;17.20;;;9.70;99.90;;;;;;5137666;27;20038;-75
2022/03/17 04:43:39;;;;;;;27.87;19.03;;;9.60;99.90;;;;;;5155897;27;20042;-75
2022/03/17 04:46:07;;;;;;;30.00;18.60;;;9.70;99.90;;;;;;5155907;27;20502;-75
2022/03/17 04:48:33;;;;;;;30.00;19.27;;;9.70;99.90;;;;;;5155784;27;20492;-74
2022/03/17 04:50:58;;;;;;;31.08;20.08;;;9.70;99.90;;;;;;5155707;27;20125;-74
2022/03/17 04:53:27;;;;;;;32.75;20.83;;;9.70;99.90;;;;;;5155751;27;20054;-74
2022/03/17 04:55:53;;;;;;;33.05;20.50;;;9.80;99.90;;;;;;5155561;27;20038;-74
2022/03/17 04:58:19;;;;;;;32.88;20.67;;;9.80;99.90;;;;;;5155695;27;20053;-75
2022/03/17 05:00:46;;;;;;;32.05;20.65;;;9.80;99.90;;;;;;5155579;27;20039;-75
2022/03/17 05:03:12;;;;;;;32.80;21.45;;;9.90;99.90;;;;;;5155575;27;20054;-74
2022/03/17 05:05:38;;;;;;;36.65;23.00;;;9.90;99.90;;;;;;5137662;27;20124;-74
2022/03/17 05:08:05;;;;;;;43.95;25.65;;;9.90;99.90;;;;;;5155577;27;20046;-75
2022/03/17 05:10:33;;;;;;;39.60;24.90;;;9.80;99.90;;;;;;5155325;27;20054;-75
2022/03/17 05:12:59;;;;;;;47.38;27.83;;;9.90;99.90;;;;;;5155892;27;20074;-74
2022/03/17 05:15:25;;;;;;;46.33;27.70;;;9.80;99.90;;;;;;5155491;27;20046;-74
2022/03/17 05:17:51;;;;;;;47.05;26.40;;;9.80;99.90;;;;;;5155506;27;20386;-74
2022/03/17 05:20:18;;;;;;;51.22;30.08;;;9.80;99.90;;;;;;5136870;27;20042;-75
2022/03/17 05:22:43;;;;;;;51.05;29.83;;;9.70;99.90;;;;;;5136906;27;20082;-75
2022/03/17 05:25:10;;;;;;;52.58;30.65;;;9.60;99.90;;;;;;5155206;27;20490;-74
2022/03/17 05:27:41;;;;;;;58.15;32.00;;;9.60;99.90;;;;;;5155204;27;20039;-74
2022/03/17 05:30:09;;;;;;;57.00;31.77;;;9.50;99.90;;;;;;5155436;27;20039;-74
2022/03/17 05:32:35;;;;;;;58.20;31.80;;;9.50;99.90;;;;;;5154981;27;20049;-74
2022/03/17 05:35:00;;;;;;;62.67;33.55;;;9.50;99.90;;;;;;5136619;27;20047;-74
2022/03/17 05:37:26;;;;;;;63.92;31.00;;;9.50;99.90;;;;;;5136791;27;20034;-74
2022/03/17 05:39:52;;;;;;;56.70;29.60;;;9.50;99.90;;;;;;5155123;27;20038;-74
2022/03/17 05:42:17;;;;;;;42.13;22.58;;;9.40;99.90;;;;;;5155209;27;20039;-74
2022/03/17 05:44:43;;;;;;;32.15;18.33;;;9.40;99.90;;;;;;5155593;27;20051;-74
2022/03/17 05:47:09;;;;;;;26.42;14.88;;;9.40;99.90;;;;;;5155164;27;20497;-74
2022/03/17 05:49:34;;;;;;;17.63;11.02;;;9.30;99.90;;;;;;5155209;27;20505;-74
2022/03/17 05:52:00;;;;;;;15.50;9.00;;;9.20;99.90;;;;;;5155089;27;20363;-74
2022/03/17 05:54:26;;;;;;;11.75;7.45;;;9.20;99.90;;;;;;5155122;27;20042;-74
2022/03/17 05:56:51;;;;;;;10.82;7.55;;;9.10;99.90;;;;;;5155010;27;20039;-74
2022/03/17 05:59:17;;;;;;;9.50;6.38;;;9.00;99.90;;;;;;5155026;27;20095;-74
2022/03/17 06:01:42;;;;;;;10.18;6.95;;;8.90;99.90;;;;;;5155012;27;20063;-74
2022/03/17 06:04:08;;;;;;;13.80;7.70;;;8.90;99.90;;;;;;5154948;27;20047;-74
2022/03/17 06:06:34;;;;;;;8.95;6.88;;;8.70;99.90;;;;;;5155000;27;20470;-74
2022/03/17 06:09:00;;;;;;;10.40;7.88;;;8.70;99.90;;;;;;5154848;27;20041;-74
2022/03/17 06:11:27;;;;;;;9.90;7.22;;;8.60;99.90;;;;;;5155085;27;20150;-74
2022/03/17 06:13:53;;;;;;;10.75;6.63;;;8.50;99.90;;;;;;5154940;27;20050;-74
2022/03/17 06:16:20;;;;;;;9.38;7.05;;;8.50;99.90;;;;;;5154780;27;20062;-74
2022/03/17 06:18:47;;;;;;;10.18;7.15;;;8.40;99.90;;;;;;5154768;27;20125;-73
2022/03/17 06:21:13;;;;;;;11.32;6.85;;;8.40;99.90;;;;;;5154848;27;20166;-74
2022/03/17 06:23:38;;;;;;;11.30;7.35;;;8.40;99.90;;;;;;5154608;27;20063;-73
2022/03/17 06:26:04;;;;;;;11.73;6.93;;;8.30;99.90;;;;;;5154732;27;20039;-73
2022/03/17 06:28:30;;;;;;;11.10;7.68;;;8.30;99.90;;;;;;5155157;27;20130;-73
2022/03/17 06:30:56;;;;;;;12.63;7.25;;;8.30;99.90;;;;;;5154925;27;20427;-74
2022/03/17 06:33:22;;;;;;;15.88;7.82;;;8.20;99.90;;;;;;5154577;27;20046;-73
2022/03/17 06:35:48;;;;;;;12.57;7.40;;;8.20;99.90;;;;;;5156937;27;20062;-74
2022/03/17 06:38:13;;;;;;;13.43;7.38;;;8.20;99.90;;;;;;5158243;27;20265;-74
2022/03/17 06:40:39;;;;;;;12.45;7.85;;;8.10;99.90;;;;;;5158371;27;20050;-74
2022/03/17 06:43:05;;;;;;;15.82;7.57;;;8.10;99.90;;;;;;5158529;27;20050;-75
2022/03/17 06:45:31;;;;;;;12.77;7.45;;;8.10;99.90;;;;;;5158197;27;20049;-74
2022/03/17 06:47:57;;;;;;;12.40;7.93;;;8.10;99.90;;;;;;5158186;27;20042;-74
2022/03/17 06:50:23;;;;;;;13.48;7.50;;;8.10;99.90;;;;;;5158384;27;20181;-74
2022/03/17 06:52:50;;;;;;;11.57;7.32;;;8.10;99.90;;;;;;5158341;27;20038;-75
2022/03/17 06:55:15;;;;;;;11.57;7.05;;;8.10;99.90;;;;;;5158460;27;20077;-74
2022/03/17 06:57:41;;;;;;;11.15;7.18;;;8.10;99.90;;;;;;5139717;27;20046;-74
2022/03/17 07:00:10;;;;;;;13.07;6.63;;;8.10;99.90;;;;;;5158064;27;20043;-74
2022/03/17 07:02:36;;;;;;;13.27;7.05;;;8.10;99.90;;;;;;5139485;27;20046;-74
2022/03/17 07:05:03;;;;;;;13.00;6.43;;;8.00;99.90;;;;;;5157859;27;20541;-73
2022/03/17 07:07:29;;;;;;;15.65;6.68;;;8.00;99.90;;;;;;5139278;27;20035;-74
2022/03/17 07:09:54;;;;;;;15.60;6.85;;;8.00;99.90;;;;;;5157381;27;20451;-74
2022/03/17 07:12:20;;;;;;;9.88;6.57;;;8.00;99.90;;;;;;5157780;27;20038;-75
2022/03/17 07:14:45;;;;;;;11.30;6.18;;;8.00;99.90;;;;;;5157995;27;20045;-75
2022/03/17 07:17:11;;;;;;;11.95;6.20;;;7.90;99.90;;;;;;5157635;27;20039;-75
2022/03/17 07:19:37;;;;;;;16.88;6.10;;;7.90;99.90;;;;;;5139211;27;20038;-76
2022/03/17 07:22:03;;;;;;;10.50;5.55;;;7.90;99.90;;;;;;5122056;27;20043;-75
2022/03/17 07:24:29;;;;;;;10.48;5.05;;;7.90;99.90;;;;;;5139133;27;20435;-76
2022/03/17 07:26:55;;;;;;;13.98;4.60;;;7.90;99.90;;;;;;5157387;27;20042;-76
2022/03/17 07:29:21;;;;;;;12.15;4.85;;;7.90;99.90;;;;;;5157375;27;20038;-77
2022/03/17 07:31:46;;;;;;;12.43;4.53;;;7.80;99.90;;;;;;5157391;27;20048;-77
2022/03/17 07:34:12;;;;;;;7.30;3.58;;;7.80;99.90;;;;;;5157337;27;20043;-74
2022/03/17 07:36:40;;;;;;;14.55;4.20;;;7.80;99.90;;;;;;5157213;27;20486;-76
2022/03/17 07:39:06;;;;;;;8.70;3.05;;;7.90;99.90;;;;;;5133986;27;20091;-75
2022/03/17 07:41:32;;;;;;;10.13;3.28;;;7.90;99.90;;;;;;5134111;27;20058;-74
2022/03/17 07:43:57;;;;;;;10.18;3.00;;;7.90;99.90;;;;;;5155918;27;20043;-75
2022/03/17 07:46:23;;;;;;;6.03;2.25;;;7.90;99.90;;;;;;5156173;27;20066;-79
2022/03/17 07:48:49;;;;;;;7.25;2.55;;;7.90;99.90;;;;;;5156244;27;20409;-73
2022/03/17 07:51:14;;;;;;;5.65;2.33;;;8.00;99.90;;;;;;5155829;27;20091;-74
2022/03/17 07:53:40;;;;;;;12.15;2.88;;;8.00;99.90;;;;;;5155863;27;20435;-75
2022/03/17 07:56:10;;;;;;;8.38;2.42;;;7.90;99.90;;;;;;5156660;27;20493;-75
2022/03/17 07:58:37;;;;;;;9.50;2.67;;;7.90;99.90;;;;;;5156406;27;20054;-73
2022/03/17 08:01:03;;;;;;;11.57;2.45;;;7.90;99.90;;;;;;5137866;27;20111;-74
2022/03/17 08:03:29;;;;;;;7.55;2.55;;;7.90;99.90;;;;;;5156254;27;20046;-74
2022/03/17 08:05:55;;;;;;;9.80;2.63;;;7.90;99.90;;;;;;5156497;27;20090;-74
2022/03/17 08:08:20;;;;;;;10.18;2.58;;;7.80;99.90;;;;;;5156368;27;20046;-74
2022/03/17 08:10:46;;;;;;;7.25;2.28;;;7.80;99.90;;;;;;5137456;27;20380;-74
2022/03/17 08:13:12;;;;;;;7.80;2.25;;;7.80;99.90;;;;;;5155559;27;20061;-74
2022/03/17 08:15:39;;;;;;;11.13;2.03;;;7.80;99.90;;;;;;5156659;27;20050;-74
2022/03/17 08:18:08;;;;;;;8.57;2.10;;;7.80;99.90;;;;;;5156377;27;20047;-73
2022/03/17 08:20:41;;;;;;;7.80;1.63;;;7.80;99.90;;;;;;5155752;27;20043;-75
2022/03/17 08:23:08;;;;;;;8.48;1.63;;;7.80;99.90;;;;;;5155838;27;20087;-75
2022/03/17 08:25:35;;;;;;;10.32;1.70;;;7.80;99.90;;;;;;5155642;27;20554;-74
2022/03/17 08:28:04;;;;;;;8.10;1.50;;;7.90;99.90;;;;;;5155887;27;20053;-73
2022/03/17 08:30:31;;;;;;;7.25;1.77;;;7.90;99.90;;;;;;5137537;27;20045;-73
2022/03/17 08:32:58;;;;;;;8.00;1.67;;;7.80;99.90;;;;;;5155668;27;20045;-73
2022/03/17 08:35:24;;;;;;;4.75;1.20;;;7.80;99.90;;;;;;5155449;27;20134;-74
2022/03/17 08:37:51;;;;;;;12.80;2.72;;;7.80;99.90;;;;;;5155887;27;20078;-73
2022/03/17 08:40:16;;;;;;;12.60;1.90;;;7.80;99.90;;;;;;5155411;27;20543;-74
2022/03/17 08:42:42;;;;;;;8.32;1.67;;;7.80;99.90;;;;;;5137582;27;20092;-73
2022/03/17 08:50:39;;;;;;;5.65;1.60;;;7.80;99.90;;;;;;5155376;27;20046;-73
2022/03/17 08:53:05;;;;;;;9.77;1.67;;;7.80;99.90;;;;;;5155226;27;20043;-74
2022/03/17 08:55:30;;;;;;;5.60;1.55;;;7.90;99.90;;;;;;5136929;27;20053;-74
2022/03/17 08:57:57;;;;;;;6.78;1.30;;;7.90;99.90;;;;;;5155124;27;20042;-74
2022/03/17 09:00:23;;;;;;;16.40;1.95;;;7.80;99.90;;;;;;5155196;27;20052;-74
2022/03/17 09:02:49;;;;;;;7.70;1.67;;;7.80;99.90;;;;;;5155212;27;20508;-73
2022/03/17 09:05:15;;;;;;;11.68;1.73;;;7.90;99.90;;;;;;5136574;27;20129;-73
2022/03/17 09:07:40;;;;;;;14.95;1.73;;;7.90;99.90;;;;;;5137397;27;20690;-74
2022/03/17 09:10:06;;;;;;;16.45;1.92;;;7.90;99.90;;;;;;5154861;27;20065;-73
2022/03/17 09:12:33;;;;;;;12.80;2.17;;;7.90;99.90;;;;;;5155246;27;20045;-74
2022/03/17 09:14:59;;;;;;;12.23;1.67;;;7.90;99.90;;;;;;5136771;27;20509;-73
2022/03/17 09:17:25;;;;;;;11.27;1.70;;;8.00;99.90;;;;;;5155305;27;20436;-75
2022/03/17 09:19:51;;;;;;;6.97;1.30;;;7.90;99.90;;;;;;5154980;27;20280;-74
2022/03/17 09:22:16;;;;;;;12.98;2.05;;;8.00;99.90;;;;;;5136611;27;20049;-73
2022/03/17 09:24:43;;;;;;;12.38;1.92;;;7.90;99.90;;;;;;5154931;27;20130;-74
2022/03/17 09:27:09;;;;;;;10.30;1.98;;;7.90;99.90;;;;;;5154857;27;20081;-74
2022/03/17 09:29:38;;;;;;;13.38;1.73;;;7.90;99.90;;;;;;5154622;27;20459;-74
2022/03/17 09:32:04;;;;;;;8.82;2.20;;;7.90;99.90;;;;;;5154920;27;20038;-73
2022/03/17 09:34:33;;;;;;;4.07;1.30;;;7.90;99.90;;;;;;5154899;27;20039;-74
2022/03/17 09:36:59;;;;;;;7.50;1.33;;;8.00;99.90;;;;;;5136743;27;20292;-76
2022/03/17 09:39:45;;;;;;;8.33;1.30;;;7.90;99.90;;;;;;5154516;27;20054;-75
2022/03/17 09:42:15;;;;;;;13.10;2.47;;;8.00;99.90;;;;;;5155008;27;20093;-75
2022/03/17 09:44:42;;;;;;;15.43;2.33;;;8.10;99.90;;;;;;5136682;27;20047;-75
2022/03/17 09:47:09;;;;;;;12.63;1.55;;;8.30;99.90;;;;;;5136807;27;20043;-75
2022/03/17 09:49:37;;;;;;;10.35;1.60;;;8.40;99.90;;;;;;5154591;27;20167;-76
2022/03/17 09:52:11;;;;;;;7.75;1.85;;;8.40;99.90;;;;;;5154819;27;20070;-75
2022/03/17 09:54:37;;;;;;;9.95;1.92;;;8.30;99.90;;;;;;5154461;27;20046;-77
2022/03/17 09:57:04;;;;;;;14.05;1.83;;;8.30;99.90;;;;;;5136306;27;20550;-77
2022/03/17 09:59:30;;;;;;;10.57;1.58;;;8.30;99.90;;;;;;5136700;27;20084;-74
2022/03/17 10:01:59;;;;;;;8.97;1.53;;;8.30;99.90;;;;;;5155344;27;20043;-78
2022/03/17 10:04:24;;;;;;;6.13;1.67;;;8.60;99.90;;;;;;5135968;27;20057;-76
2022/03/17 10:06:51;;;;;;;9.60;1.60;;;8.30;99.90;;;;;;5154395;27;20046;-76
2022/03/17 10:09:16;;;;;;;13.17;1.93;;;8.40;99.90;;;;;;5154406;27;20133;-75
2022/03/17 10:11:42;;;;;;;9.27;1.83;;;8.50;99.90;;;;;;5122465;27;20149;-74
2022/03/17 10:14:09;;;;;;;14.17;1.53;;;8.50;99.90;;;;;;5158591;27;20042;-76
2022/03/17 10:16:37;;;;;;;10.55;1.50;;;8.60;99.90;;;;;;5140412;27;20047;-77
2022/03/17 10:19:05;;;;;;;7.18;1.65;;;8.70;99.90;;;;;;5123014;27;20035;-76
2022/03/17 10:21:31;;;;;;;9.55;1.75;;;8.70;99.90;;;;;;5139453;27;20038;-76
2022/03/17 10:24:06;;;;;;;6.67;2.00;;;8.80;99.90;;;;;;5158305;27;20382;-74
2022/03/17 10:26:47;;;;;;;4.38;1.70;;;8.80;99.90;;;;;;5158736;27;20043;-74
2022/03/17 10:29:19;;;;;;;9.82;1.60;;;8.90;99.90;;;;;;5140055;27;20478;-74
2022/03/17 10:31:59;;;;;;;11.73;1.73;;;8.90;99.90;;;;;;5158049;27;20053;-74
2022/03/17 10:34:36;;;;;;;6.85;1.58;;;8.90;99.90;;;;;;5157821;27;20054;-75
2022/03/17 10:37:07;;;;;;;9.55;1.67;;;8.90;99.90;;;;;;5157602;27;20046;-74
2022/03/17 10:39:47;;;;;;;8.43;1.42;;;9.00;99.90;;;;;;5157949;27;20099;-76
2022/03/17 10:42:18;;;;;;;11.18;2.38;;;9.00;99.90;;;;;;5157935;27;20043;-76
2022/03/17 10:44:50;;;;;;;13.20;2.45;;;9.10;99.90;;;;;;5145490;27;20114;-75
2022/03/17 10:47:33;;;;;;;9.13;1.50;;;9.10;99.90;;;;;;5157917;27;20050;-76
2022/03/17 10:50:11;;;;;;;10.35;2.10;;;9.30;99.90;;;;;;5157470;27;20490;-75
2022/03/17 10:52:57;;;;;;;9.63;2.05;;;9.40;99.90;;;;;;5157815;27;20045;-75
2022/03/17 10:55:26;;;;;;;5.60;1.65;;;9.70;99.90;;;;;;5157613;27;20508;-74
2022/03/17 10:57:59;;;;;;;14.50;2.38;;;9.80;99.90;;;;;;5157674;27;20042;-74
2022/03/17 11:00:27;;;;;;;12.05;2.33;;;10.00;99.90;;;;;;5157309;27;20542;-75
2022/03/17 11:02:58;;;;;;;13.40;2.15;;;10.10;99.90;;;;;;5138837;27;20557;-75
2022/03/17 11:05:27;;;;;;;9.63;2.35;;;10.10;99.90;;;;;;5157055;27;20070;-75
2022/03/17 11:07:54;;;;;;;11.38;1.73;;;10.10;99.90;;;;;;5138309;27;20386;-78
2022/03/17 11:10:22;;;;;;;11.45;2.13;;;10.20;99.90;;;;;;5157583;27;20051;-75
2022/03/17 11:12:49;;;;;;;12.57;2.17;;;10.30;99.90;;;;;;5158008;27;20382;-74
2022/03/17 11:15:23;;;;;;;;;;;10.40;99.90;;;;;;5158058;27;20395;-77
2022/03/17 11:17:50;;;;;;;12.38;2.08;;;10.40;99.90;;;;;;5139483;27;19918;-78
2022/03/17 11:20:22;;;;;;;;;;;10.50;99.90;;;;;;5157653;27;20129;-76
2022/03/17 11:23:09;;;;;;;8.00;1.40;;;10.60;99.90;;;;;;5157563;27;19923;-78
2022/03/17 11:25:35;;;;;;;5.70;1.45;;;10.70;99.90;;;;;;5157954;27;20096;-76
2022/03/17 11:28:03;;;;;;;11.88;1.25;;;10.90;99.90;;;;;;5157491;27;20046;-77
2022/03/17 11:30:49;;;;;;;7.90;2.13;;;11.10;99.90;;;;;;5157611;27;20039;-78
2022/03/17 11:33:30;;;;;;;7.78;1.42;;;11.20;99.90;;;;;;5157262;27;20533;-76
2022/03/17 11:35:59;;;;;;;5.28;1.42;;;11.30;99.90;;;;;;5157317;27;20134;-75
2022/03/17 11:38:30;;;;;;;10.55;1.73;;;11.50;99.90;;;;;;5157370;27;20047;-75
2022/03/17 11:41:14;;;;;;;6.65;1.52;;;11.60;99.90;;;;;;5157142;27;20050;-76
2022/03/17 11:43:46;;;;;;;6.00;1.50;;;11.80;99.90;;;;;;5157252;27;20051;-78
2022/03/17 11:46:19;;;;;;;7.50;1.50;;;12.00;99.90;;;;;;5157431;27;20047;-77
2022/03/17 11:48:56;;;;;;;7.13;1.52;;;12.00;99.90;;;;;;5157303;27;20109;-78
2022/03/17 11:51:24;;;;;;;7.25;1.67;;;12.20;99.90;;;;;;5157041;27;20031;-76
2022/03/17 11:53:53;;;;;;;7.88;1.75;;;12.30;99.90;;;;;;5156937;27;20042;-76
2022/03/17 11:56:37;;;;;;;3.63;1.17;;;12.20;99.90;;;;;;5156820;27;20043;-78
2022/03/17 11:59:05;;;;;;;13.57;2.90;;;12.00;99.90;;;;;;5157191;27;20042;-77
2022/03/17 12:01:41;;;;;;;11.18;1.70;;;11.90;99.90;;;;;;5138566;27;20367;-78
2022/03/17 12:04:17;;;;;;;8.02;1.48;;;11.80;99.90;;;;;;5138508;27;20049;-77
2022/03/17 12:06:52;;;;;;;7.53;1.38;;;11.60;99.90;;;;;;5156967;27;20050;-77
2022/03/17 12:09:30;;;;;;;9.00;1.90;;;11.40;99.90;;;;;;5156717;27;20376;-78
2022/03/17 12:11:56;;;;;;;6.25;1.38;;;11.50;99.90;;;;;;5156831;27;20047;-77
2022/03/17 12:14:25;;;;;;;8.32;1.83;;;11.70;99.90;;;;;;5156705;27;20054;-78
2022/03/17 12:17:02;;;;;;;9.05;1.50;;;11.90;99.90;;;;;;5156143;27;20091;-77
2022/03/17 12:19:32;;;;;;;6.80;1.55;;;12.00;99.90;;;;;;5156509;27;20046;-77
2022/03/17 12:21:57;;;;;;;7.90;1.65;;;12.10;99.90;;;;;;5156370;27;20073;-78
2022/03/17 12:24:35;;;;;;;7.18;1.50;;;12.10;99.90;;;;;;5156343;27;20454;-77
2022/03/17 12:27:30;;;;;;;7.00;1.27;;;12.20;99.90;;;;;;5156753;27;20042;-78
2022/03/17 12:30:12;;;;;;;7.43;1.42;;;12.30;99.90;;;;;;5156188;27;20039;-77
2022/03/17 12:32:40;;;;;;;10.07;1.50;;;12.30;99.90;;;;;;5155382;27;20082;-78
2022/03/17 12:35:11;;;;;;;7.45;1.63;;;12.30;99.90;;;;;;5156154;27;20071;-78
2022/03/17 12:37:38;;;;;;;6.90;1.50;;;12.40;99.90;;;;;;5156263;27;20046;-78
2022/03/17 12:40:06;;;;;;;8.68;1.60;;;12.40;99.90;;;;;;5137844;27;20047;-78
2022/03/17 12:42:37;;;;;;;8.85;1.92;;;12.50;99.90;;;;;;5156010;27;20122;-77
2022/03/17 12:45:08;;;;;;;7.35;2.05;;;12.60;99.90;;;;;;5156428;27;20125;-78
2022/03/17 12:47:36;;;;;;;7.57;1.52;;;12.70;99.90;;;;;;5137555;27;20125;-78
2022/03/17 12:50:12;;;;;;;7.25;1.50;;;12.60;99.90;;;;;;5137968;27;20082;-78
2022/03/17 12:52:40;;;;;;;8.00;1.88;;;12.60;99.90;;;;;;5137260;27;20035;-78
2022/03/17 12:55:10;;;;;;;10.75;1.70;;;12.60;99.90;;;;;;5155606;27;20039;-77
2022/03/17 12:57:40;;;;;;;9.10;1.63;;;12.60;99.90;;;;;;5155783;27;20046;-77
2022/03/17 13:00:12;;;;;;;8.02;1.73;;;12.60;99.90;;;;;;5154529;27;20405;-77